Time;durP1;ratioP1;P1;durP2;ratioP2;P2;SDS_P1;SDS_P2;PMS_P1;PMS_P2;Temp;Humidity;BMP_temperature;BMP_pressure;BME280_temperature;BME280_humidity;BME280_pressure;Samples;Min_cycle;Max_cycle;Signal;HPM_P1;HPM_P2
2022/12/17 13:07:48;;;;;;;53.58;24.08;;;;;;;-2.06;100.00;101114.66;5001769;28;20025;-70
2022/12/17 13:10:23;;;;;;;52.03;24.02;;;;;;;-2.07;100.00;101110.25;4998572;28;20034;-70
2022/12/17 13:12:49;;;;;;;50.97;23.88;;;;;;;-2.07;100.00;101102.06;4991164;28;20033;-70
2022/12/17 13:15:34;;;;;;;51.95;23.25;;;;;;;-2.07;100.00;101096.63;5034910;28;20029;-70
2022/12/17 13:18:20;;;;;;;50.58;23.67;;;;;;;-2.09;100.00;101087.84;5004115;28;20065;-70
2022/12/17 13:20:59;;;;;;;54.90;23.67;;;;;;;-2.17;100.00;101085.25;5018810;28;20030;-70
2022/12/17 13:23:30;;;;;;;57.58;25.45;;;;;;;-2.20;100.00;101080.22;5017672;28;20070;-70
2022/12/17 13:26:11;;;;;;;54.70;24.48;;;;;;;-2.24;100.00;101076.19;4998988;28;20092;-70
2022/12/17 13:28:36;;;;;;;53.85;25.88;;;;;;;-2.27;100.00;101062.97;5032080;28;20084;-70
2022/12/17 13:31:15;;;;;;;52.85;24.08;;;;;;;-2.25;100.00;101058.19;5014949;28;20042;-70
2022/12/17 13:33:44;;;;;;;60.10;25.10;;;;;;;-2.26;100.00;101060.06;4999233;28;20037;-70
2022/12/17 13:36:18;;;;;;;56.03;24.85;;;;;;;-2.27;100.00;101052.09;5014701;28;20046;-70
2022/12/17 13:39:22;;;;;;;56.25;24.17;;;;;;;-2.29;100.00;101055.00;5014876;28;20379;-70
2022/12/17 13:41:52;;;;;;;56.15;25.13;;;;;;;-2.30;100.00;101053.31;5008663;28;20052;-70
2022/12/17 13:44:22;;;;;;;57.97;24.52;;;;;;;-2.30;100.00;101057.94;4982490;28;20030;-70
2022/12/17 13:46:48;;;;;;;53.35;24.25;;;;;;;-2.33;100.00;101047.44;4995814;28;20029;-70
2022/12/17 13:49:21;;;;;;;54.47;23.67;;;;;;;-2.37;100.00;101051.56;5010592;28;20033;-70
2022/12/17 13:51:47;;;;;;;54.97;22.40;;;;;;;-2.36;100.00;101039.69;5016124;28;20034;-70
2022/12/17 13:54:17;;;;;;;50.88;22.23;;;;;;;-2.38;100.00;101028.13;5014356;28;20068;-70
2022/12/17 13:56:43;;;;;;;50.88;22.27;;;;;;;-2.39;100.00;101010.97;5015911;28;20030;-70
2022/12/17 13:59:23;;;;;;;49.03;22.23;;;;;;;-2.42;100.00;100997.78;4981910;28;20029;-70
2022/12/17 14:01:50;;;;;;;49.70;22.30;;;;;;;-2.45;100.00;100984.56;5018184;28;20033;-71
2022/12/17 14:04:25;;;;;;;53.63;23.38;;;;;;;-2.47;100.00;100976.59;5009072;28;20026;-70
2022/12/17 14:06:51;;;;;;;54.15;23.42;;;;;;;-2.48;100.00;100969.47;4986571;28;20129;-69
2022/12/17 14:09:18;;;;;;;52.25;23.20;;;;;;;-2.50;100.00;100977.00;4998434;28;20034;-70
2022/12/17 14:14:42;;;;;;;55.22;23.13;;;;;;;-2.51;100.00;100948.13;5026747;28;20036;-70
2022/12/17 14:17:18;;;;;;;51.00;22.48;;;;;;;-2.51;100.00;100961.72;5037034;28;20083;-70
2022/12/17 14:19:44;;;;;;;51.42;22.77;;;;;;;-2.52;100.00;100973.63;4993556;28;20108;-70
2022/12/17 14:22:17;;;;;;;54.65;23.30;;;;;;;-2.53;100.00;100977.38;5031944;28;20037;-70
2022/12/17 14:24:43;;;;;;;51.55;22.48;;;;;;;-2.54;100.00;100964.81;5006525;28;20069;-70
2022/12/17 14:27:24;;;;;;;50.30;21.73;;;;;;;-2.57;100.00;100954.31;5010872;28;20482;-70
2022/12/17 14:29:50;;;;;;;52.17;22.35;;;;;;;-2.58;100.00;100962.69;5020933;28;20064;-70
2022/12/17 14:32:25;;;;;;;54.40;22.15;;;;;;;-2.56;100.00;100979.66;5020465;28;20100;-70
2022/12/17 14:34:51;;;;;;;52.15;23.58;;;;;;;-2.59;100.00;100983.63;5000316;28;20041;-70
2022/12/17 14:37:18;;;;;;;48.13;21.30;;;;;;;-2.61;100.00;100984.84;5020833;28;20061;-70
2022/12/17 14:39:45;;;;;;;47.50;22.27;;;;;;;-2.62;100.00;100967.69;5002931;28;20065;-70
2022/12/17 14:42:25;;;;;;;46.95;21.67;;;;;;;-2.63;100.00;100982.31;5028008;28;20028;-70
2022/12/17 14:45:02;;;;;;;46.50;20.27;;;;;;;-2.64;100.00;100980.66;4992265;28;20038;-70
2022/12/17 14:47:35;;;;;;;48.53;22.02;;;;;;;-2.68;100.00;100984.78;5019104;28;20061;-70
2022/12/17 14:50:05;;;;;;;47.00;21.98;;;;;;;-2.66;100.00;100992.75;5017938;28;20030;-70
2022/12/17 14:52:47;;;;;;;50.80;22.05;;;;;;;-2.70;100.00;100997.75;4986606;28;20041;-70
2022/12/17 14:55:22;;;;;;;48.22;22.42;;;;;;;-2.71;100.00;101002.31;5005032;28;20069;-70
2022/12/17 14:57:49;;;;;;;49.45;22.77;;;;;;;-2.73;100.00;101009.84;5063560;28;20033;-69
2022/12/17 15:00:14;;;;;;;44.58;20.45;;;;;;;-2.75;100.00;101016.50;5036159;28;20059;-70
2022/12/17 15:02:41;;;;;;;49.38;21.88;;;;;;;-2.79;100.00;101017.91;4988706;28;20069;-70
2022/12/17 15:05:11;;;;;;;44.08;21.50;;;;;;;-2.77;100.00;101029.44;5019300;28;20026;-70
2022/12/17 15:07:37;;;;;;;49.95;22.50;;;;;;;-2.83;100.00;101027.50;5021195;28;20058;-69
2022/12/17 15:10:12;;;;;;;47.92;21.02;;;;;;;-2.84;100.00;101045.72;5018446;28;20104;-70
2022/12/17 15:12:37;;;;;;;47.97;21.75;;;;;;;-2.89;100.00;101047.31;5017404;28;20029;-70
2022/12/17 15:15:03;;;;;;;43.53;19.90;;;;;;;-2.88;100.00;101044.41;5019604;28;20156;-70
2022/12/17 15:17:28;;;;;;;45.95;21.35;;;;;;;-2.87;100.00;101037.06;5031858;28;20058;-70
2022/12/17 15:19:54;;;;;;;46.90;21.58;;;;;;;-2.88;100.00;101027.25;5016977;28;20032;-69
2022/12/17 15:22:19;;;;;;;49.53;20.58;;;;;;;-2.87;100.00;101031.63;5002027;28;20533;-70
2022/12/17 15:24:45;;;;;;;48.53;21.42;;;;;;;-2.87;100.00;101034.34;4969395;28;20026;-70
2022/12/17 15:27:15;;;;;;;45.58;21.40;;;;;;;-2.87;100.00;101026.19;5016899;28;20041;-70
2022/12/17 15:29:41;;;;;;;50.15;22.60;;;;;;;-2.89;100.00;101007.38;5002306;28;20498;-69
2022/12/17 15:32:06;;;;;;;45.28;20.27;;;;;;;-2.90;100.00;101004.84;5000733;28;20057;-70
2022/12/17 15:34:32;;;;;;;49.50;21.50;;;;;;;-2.91;100.00;101009.44;5001193;28;20037;-70
2022/12/17 15:36:57;;;;;;;41.20;19.92;;;;;;;-2.90;100.00;101007.56;5029372;28;20042;-70
2022/12/17 15:39:23;;;;;;;44.25;20.67;;;;;;;-2.96;100.00;101010.00;5045962;28;20034;-70
2022/12/17 15:44:33;;;;;;;47.45;21.63;;;;;;;-2.98;100.00;101011.25;5023340;28;20513;-70
2022/12/17 15:46:58;;;;;;;47.95;21.92;;;;;;;-3.00;100.00;100986.16;4998138;28;20038;-70
2022/12/17 15:49:24;;;;;;;47.88;23.00;;;;;;;-3.04;100.00;100990.28;5000238;28;20402;-70
2022/12/17 15:51:49;;;;;;;49.63;22.63;;;;;;;-3.06;100.00;100989.66;5003514;28;20033;-70
2022/12/17 15:54:15;;;;;;;46.92;22.20;;;;;;;-3.08;100.00;100995.25;4989710;28;20025;-70
2022/12/17 15:56:40;;;;;;;51.60;22.33;;;;;;;-3.09;100.00;101004.47;5009680;28;20654;-70
2022/12/17 15:59:06;;;;;;;45.92;21.75;;;;;;;-3.13;100.00;101005.03;5022260;28;20030;-70
2022/12/17 16:01:31;;;;;;;44.17;21.35;;;;;;;-3.16;100.00;100995.38;5035971;28;20029;-77
2022/12/17 16:03:57;;;;;;;47.42;21.40;;;;;;;-3.16;100.00;101003.53;4986158;28;20044;-70
2022/12/17 16:06:22;;;;;;;48.50;22.65;;;;;;;-3.20;100.00;101005.81;5019663;28;20041;-70
2022/12/17 16:08:47;;;;;;;46.35;21.90;;;;;;;-3.18;100.00;100997.44;5003568;28;20067;-70
2022/12/17 16:11:14;;;;;;;46.60;22.25;;;;;;;-3.20;100.00;101002.25;4999826;28;20041;-70
2022/12/17 16:13:39;;;;;;;47.83;22.35;;;;;;;-3.23;100.00;101003.47;5003691;28;20072;-70
2022/12/17 16:16:05;;;;;;;48.08;22.90;;;;;;;-3.22;100.00;101007.03;5001411;28;20072;-70
2022/12/17 16:18:31;;;;;;;47.72;21.20;;;;;;;-3.24;100.00;101009.91;4960770;28;20120;-70
2022/12/17 16:21:03;;;;;;;49.28;23.17;;;;;;;-3.24;100.00;101006.38;5017977;28;20053;-70
2022/12/17 16:23:29;;;;;;;46.47;22.20;;;;;;;-3.24;100.00;101025.38;5002567;28;20588;-70
2022/12/17 16:25:58;;;;;;;43.85;21.65;;;;;;;-3.26;100.00;101030.16;5000907;28;20034;-70
2022/12/17 16:28:25;;;;;;;45.05;22.90;;;;;;;-3.28;100.00;101030.38;5017489;28;20030;-70
2022/12/17 16:31:00;;;;;;;45.75;21.58;;;;;;;-3.27;100.00;101034.75;5036617;28;20022;-70
2022/12/17 16:33:25;;;;;;;47.97;23.50;;;;;;;-3.26;100.00;101032.88;5033300;28;20025;-70
2022/12/17 16:35:52;;;;;;;45.60;22.60;;;;;;;-3.27;100.00;101044.78;5035216;28;20048;-70
2022/12/17 16:38:17;;;;;;;48.95;22.08;;;;;;;-3.23;100.00;101054.22;5034859;28;20485;-70
2022/12/17 16:40:43;;;;;;;47.53;23.13;;;;;;;-3.26;100.00;101057.31;5017115;28;20120;-70
2022/12/17 16:43:09;;;;;;;44.13;22.15;;;;;;;-3.24;100.00;101061.53;5030774;28;20037;-70
2022/12/17 16:45:34;;;;;;;45.05;23.25;;;;;;;-3.24;100.00;101060.69;5010588;28;20029;-70
2022/12/17 16:48:00;;;;;;;43.05;22.65;;;;;;;-3.25;100.00;101034.56;5008784;28;20517;-70
2022/12/17 16:50:26;;;;;;;49.92;23.60;;;;;;;-3.23;100.00;101027.06;5018577;28;20037;-70
2022/12/17 16:52:52;;;;;;;47.95;22.88;;;;;;;-3.21;100.00;101030.44;5013229;28;20041;-70
2022/12/17 16:55:17;;;;;;;49.45;24.13;;;;;;;-3.22;100.00;101026.03;5006542;28;20030;-70
2022/12/17 16:57:46;;;;;;;50.75;23.77;;;;;;;-3.25;100.00;101024.53;5030343;28;20029;-70
2022/12/17 17:00:12;;;;;;;48.40;24.30;;;;;;;-3.25;100.00;101021.81;4985869;28;20040;-70
2022/12/17 17:02:37;;;;;;;45.20;22.67;;;;;;;-3.23;100.00;101024.34;4981351;28;20026;-70
2022/12/17 17:05:03;;;;;;;51.38;24.60;;;;;;;-3.22;100.00;101017.88;4991880;28;20450;-70
2022/12/17 17:07:29;;;;;;;44.40;22.80;;;;;;;-3.23;100.00;101010.75;5000806;28;20030;-70
2022/12/17 17:09:54;;;;;;;47.58;24.60;;;;;;;-3.24;100.00;101019.94;4971895;28;20029;-70
2022/12/17 17:12:20;;;;;;;48.85;24.30;;;;;;;-3.23;100.00;101014.34;5017264;28;20037;-70
2022/12/17 17:14:45;;;;;;;47.70;24.73;;;;;;;-3.20;100.00;101032.13;5017294;28;20033;-70
2022/12/17 17:17:11;;;;;;;49.75;26.08;;;;;;;-3.22;100.00;101034.19;4999642;28;20042;-70
2022/12/17 17:19:36;;;;;;;49.58;25.15;;;;;;;-3.21;100.00;101044.00;5016867;28;20089;-70
2022/12/17 17:22:02;;;;;;;50.85;26.05;;;;;;;-3.23;100.00;101052.38;5001688;28;20129;-70
2022/12/17 17:24:27;;;;;;;48.35;24.63;;;;;;;-3.24;100.00;101044.41;5015014;28;20391;-70
2022/12/17 17:26:53;;;;;;;49.75;24.73;;;;;;;-3.23;100.00;101036.06;4967987;28;20026;-70
2022/12/17 17:29:18;;;;;;;46.72;24.45;;;;;;;-3.24;100.00;101028.09;4998789;28;20030;-70
2022/12/17 17:31:44;;;;;;;51.15;25.40;;;;;;;-3.22;100.00;101017.88;5019170;28;20100;-70
2022/12/17 17:34:10;;;;;;;52.88;27.58;;;;;;;-3.22;100.00;101026.03;5008842;28;20037;-70
2022/12/17 17:36:36;;;;;;;51.42;25.70;;;;;;;-3.21;100.00;101031.25;5020662;28;20144;-70
2022/12/17 17:39:01;;;;;;;52.60;25.33;;;;;;;-3.25;100.00;101038.13;4991059;28;20065;-70
2022/12/17 17:41:28;;;;;;;50.88;25.92;;;;;;;-3.23;100.00;101041.50;4998303;28;20563;-70
2022/12/17 17:43:58;;;;;;;53.75;26.38;;;;;;;-3.23;100.00;101040.63;5012225;28;20116;-70
2022/12/17 17:46:23;;;;;;;62.42;28.95;;;;;;;-3.24;100.00;101033.53;4995926;28;20022;-70
2022/12/17 17:48:49;;;;;;;57.28;28.08;;;;;;;-3.26;100.00;101033.75;4994304;28;20031;-70
2022/12/17 17:51:20;;;;;;;55.15;27.13;;;;;;;-3.22;100.00;101028.75;5026833;28;20037;-70
2022/12/17 17:53:46;;;;;;;52.97;27.10;;;;;;;-3.21;100.00;101041.28;4993136;28;20532;-70
2022/12/17 17:56:14;;;;;;;58.70;28.55;;;;;;;-3.21;100.00;101030.44;5004027;28;20036;-70
2022/12/17 17:58:45;;;;;;;57.22;28.00;;;;;;;-3.23;100.00;101027.06;5015009;28;20030;-70
2022/12/17 18:01:12;;;;;;;61.38;30.15;;;;;;;-3.21;100.00;101033.16;5003643;28;20039;-70
2022/12/17 18:03:37;;;;;;;59.33;28.85;;;;;;;-3.22;100.00;101026.88;5002206;28;20046;-70
2022/12/17 18:06:04;;;;;;;57.80;28.75;;;;;;;-3.22;100.00;101015.16;4996756;28;20125;-70
2022/12/17 18:08:30;;;;;;;58.22;27.85;;;;;;;-3.22;100.00;101015.16;4982677;28;20022;-70
2022/12/17 18:10:56;;;;;;;56.90;29.02;;;;;;;-3.21;100.00;101008.69;5004950;28;20560;-70
2022/12/17 18:16:06;;;;;;;59.88;29.08;;;;;;;-3.21;100.00;101008.69;5000633;28;20037;-70
2022/12/17 18:18:31;;;;;;;55.50;26.75;;;;;;;-3.22;100.00;101015.16;4999712;28;20030;-70
2022/12/17 18:21:02;;;;;;;57.65;28.27;;;;;;;-3.22;100.00;101012.47;5026259;28;20037;-70
2022/12/17 18:23:27;;;;;;;56.92;27.77;;;;;;;-3.23;100.00;101019.78;5014575;28;20083;-70
2022/12/17 18:25:53;;;;;;;57.35;28.77;;;;;;;-3.23;100.00;101017.06;5014398;28;20026;-70
2022/12/17 18:28:18;;;;;;;57.53;27.60;;;;;;;-3.20;100.00;101032.13;5014411;28;20022;-70
2022/12/17 18:30:44;;;;;;;55.70;27.85;;;;;;;-3.18;100.00;101032.75;5030822;28;20038;-70
2022/12/17 18:33:09;;;;;;;57.47;27.95;;;;;;;-3.18;100.00;101030.03;4965881;28;20030;-72
2022/12/17 18:35:35;;;;;;;52.80;26.05;;;;;;;-3.18;100.00;101032.75;4998145;28;20030;-73
2022/12/17 18:38:00;;;;;;;57.67;28.60;;;;;;;-3.20;100.00;101027.53;4983735;28;20096;-71
2022/12/17 18:40:26;;;;;;;54.30;26.80;;;;;;;-3.17;100.00;101037.19;5001183;28;20045;-71
2022/12/17 18:45:37;;;;;;;56.47;27.17;;;;;;;-3.17;100.00;101045.34;5000659;28;20029;-71
2022/12/17 18:48:03;;;;;;;59.78;28.67;;;;;;;-3.15;100.00;101044.09;4988858;28;20547;-71
2022/12/17 18:50:28;;;;;;;53.95;28.45;;;;;;;-3.14;100.00;101055.81;5001742;28;20038;-71
2022/12/17 18:52:54;;;;;;;58.85;28.67;;;;;;;-3.14;100.00;101053.09;5017785;28;20103;-71
2022/12/17 18:55:20;;;;;;;55.40;28.75;;;;;;;-3.13;100.00;101048.50;4976408;28;20034;-71
2022/12/17 18:57:46;;;;;;;54.25;27.60;;;;;;;-3.14;100.00;101031.38;5001103;28;20026;-71
2022/12/17 19:00:12;;;;;;;51.83;26.17;;;;;;;-3.13;100.00;101038.47;5017738;28;20037;-71
2022/12/17 19:02:37;;;;;;;53.15;27.05;;;;;;;-3.12;100.00;101040.16;5033874;28;20038;-70
2022/12/17 19:05:03;;;;;;;51.00;25.50;;;;;;;-3.12;100.00;101042.88;5001465;28;20037;-70
2022/12/17 19:07:28;;;;;;;54.47;26.67;;;;;;;-3.13;100.00;101038.47;5001376;28;20036;-70
2022/12/17 19:09:54;;;;;;;56.78;26.70;;;;;;;-3.12;100.00;101031.16;5000955;28;20029;-71
2022/12/17 19:12:20;;;;;;;55.15;27.02;;;;;;;-3.13;100.00;101030.31;5051079;28;20041;-71
2022/12/17 19:14:45;;;;;;;52.67;25.92;;;;;;;-3.13;100.00;101024.88;5019103;28;20402;-71
2022/12/17 19:17:10;;;;;;;55.78;25.98;;;;;;;-3.09;100.00;101009.91;5017218;28;20037;-71
2022/12/17 19:19:36;;;;;;;55.50;25.80;;;;;;;-3.12;100.00;101004.84;4985047;28;20026;-71
2022/12/17 19:22:02;;;;;;;49.83;24.85;;;;;;;-3.12;100.00;101003.97;4984744;28;20037;-71
2022/12/17 19:24:27;;;;;;;53.47;26.75;;;;;;;-3.16;100.00;101014.41;4996860;28;20032;-71
2022/12/17 19:26:53;;;;;;;53.45;25.25;;;;;;;-3.14;100.00;101004.19;4971952;28;20044;-71
2022/12/17 19:29:19;;;;;;;53.83;26.05;;;;;;;-3.14;100.00;100996.03;5017141;28;20025;-71
2022/12/17 19:31:44;;;;;;;49.60;24.88;;;;;;;-3.15;100.00;100992.50;5016895;28;20034;-71
2022/12/17 19:34:11;;;;;;;49.20;24.92;;;;;;;-3.13;100.00;100995.00;5028279;28;20037;-71
2022/12/17 19:36:37;;;;;;;51.15;25.35;;;;;;;-3.18;100.00;100997.44;4990746;28;20053;-71
2022/12/17 19:39:05;;;;;;;52.15;25.33;;;;;;;-3.19;100.00;100990.34;5000975;28;20046;-71
2022/12/17 19:41:31;;;;;;;54.20;26.63;;;;;;;-3.20;100.00;100988.66;5000359;28;20510;-71
2022/12/17 19:44:02;;;;;;;51.53;25.20;;;;;;;-3.23;100.00;100980.88;4984410;28;20025;-71
2022/12/17 19:46:28;;;;;;;54.42;24.25;;;;;;;-3.24;100.00;100990.91;5000777;28;20034;-71
2022/12/17 19:48:54;;;;;;;51.47;25.00;;;;;;;-3.26;100.00;101005.69;5029724;28;20467;-71
2022/12/17 19:51:21;;;;;;;54.08;25.88;;;;;;;-3.29;100.00;100992.50;5016900;28;20049;-71
2022/12/17 19:53:47;;;;;;;48.83;24.88;;;;;;;-3.30;100.00;100997.09;4988717;28;20434;-71
2022/12/17 19:56:15;;;;;;;51.10;25.20;;;;;;;-3.33;100.00;101002.09;4999684;28;20099;-71
2022/12/17 19:58:40;;;;;;;51.58;25.40;;;;;;;-3.37;100.00;100997.03;5000550;28;20157;-71
2022/12/17 20:01:09;;;;;;;52.47;25.73;;;;;;;-3.42;100.00;100993.22;4967961;28;20066;-71
2022/12/17 20:03:35;;;;;;;55.55;24.15;;;;;;;-3.45;100.00;100990.88;4989908;28;20096;-71
2022/12/17 20:06:01;;;;;;;49.65;24.38;;;;;;;-3.47;100.00;101001.91;5000174;28;20026;-71
2022/12/17 20:08:30;;;;;;;51.80;24.27;;;;;;;-3.51;100.00;101000.63;5000282;28;20478;-71
2022/12/17 20:10:56;;;;;;;53.83;24.80;;;;;;;-3.55;100.00;101004.75;4973088;28;20112;-71
2022/12/17 20:13:21;;;;;;;50.08;24.55;;;;;;;-3.55;100.00;101007.44;5020096;28;20030;-71
2022/12/17 20:15:47;;;;;;;50.50;25.13;;;;;;;-3.59;100.00;101008.88;5036790;28;20033;-71
2022/12/17 20:18:12;;;;;;;52.97;25.70;;;;;;;-3.60;100.00;101004.47;5031259;28;20060;-71
2022/12/17 20:20:38;;;;;;;51.33;25.30;;;;;;;-3.62;100.00;100998.41;5000051;28;20037;-70
2022/12/17 20:23:03;;;;;;;54.53;25.63;;;;;;;-3.69;100.00;101002.88;4997940;28;20056;-74
2022/12/17 20:25:29;;;;;;;55.78;25.92;;;;;;;-3.72;100.00;101009.53;5011398;28;20042;-71
2022/12/17 20:27:54;;;;;;;50.97;25.10;;;;;;;-3.75;100.00;101006.34;5011892;28;20041;-71
2022/12/17 20:30:23;;;;;;;58.28;25.23;;;;;;;-3.77;100.00;101002.97;5015810;28;20026;-72
2022/12/17 20:32:52;;;;;;;48.90;24.95;;;;;;;-3.79;100.00;100996.91;5002829;28;20112;-71
2022/12/17 20:35:18;;;;;;;53.72;26.05;;;;;;;-3.83;100.00;100988.28;5016447;28;20052;-72
2022/12/17 20:37:44;;;;;;;52.67;25.15;;;;;;;-3.85;100.00;100988.47;5015684;28;20089;-70
2022/12/17 20:40:09;;;;;;;56.42;26.92;;;;;;;-3.89;100.00;100991.75;4967412;28;20034;-72
2022/12/17 20:42:35;;;;;;;54.10;25.52;;;;;;;-3.91;100.00;100988.38;4967080;28;20037;-70
2022/12/17 20:45:01;;;;;;;49.00;24.92;;;;;;;-3.98;100.00;100991.03;5006776;28;20053;-70
2022/12/17 20:47:26;;;;;;;48.63;24.13;;;;;;;-4.01;100.00;100996.81;5010567;28;20033;-70
2022/12/17 20:49:51;;;;;;;57.10;25.67;;;;;;;-4.10;100.00;100998.75;4999741;28;20029;-70
2022/12/17 20:52:17;;;;;;;55.28;24.30;;;;;;;-4.09;100.00;101003.19;4999116;28;20025;-70
2022/12/17 20:54:43;;;;;;;50.35;24.27;;;;;;;-4.12;100.00;101008.13;4998935;28;20029;-70
2022/12/17 20:57:08;;;;;;;48.20;23.90;;;;;;;-4.14;100.00;100999.34;5016627;28;20037;-70
2022/12/17 20:59:34;;;;;;;52.60;24.35;;;;;;;-4.20;100.00;100994.66;4998938;28;20038;-70
2022/12/17 21:01:59;;;;;;;46.00;22.67;;;;;;;-4.21;100.00;100992.94;4982924;28;20030;-70
2022/12/17 21:04:25;;;;;;;49.92;24.63;;;;;;;-4.25;100.00;100987.06;4982728;28;20030;-70
2022/12/17 21:06:50;;;;;;;49.90;23.35;;;;;;;-4.31;100.00;100993.25;5015320;28;20081;-70
2022/12/17 21:09:21;;;;;;;53.40;25.13;;;;;;;-4.31;100.00;100987.81;4998641;28;20081;-73
2022/12/17 21:11:46;;;;;;;44.72;21.65;;;;;;;-4.34;100.00;100991.72;5015452;28;20037;-70
2022/12/17 21:14:14;;;;;;;50.83;23.38;;;;;;;-4.34;100.00;100991.72;5015697;28;20030;-70
2022/12/17 21:16:39;;;;;;;53.38;23.42;;;;;;;-4.34;100.00;101005.28;4999157;28;20507;-70
2022/12/17 21:19:05;;;;;;;47.97;23.80;;;;;;;-4.38;100.00;100992.28;4989656;28;20037;-70
2022/12/17 21:21:32;;;;;;;54.25;23.98;;;;;;;-4.39;100.00;100988.72;5018490;28;20025;-70
2022/12/17 21:23:58;;;;;;;49.75;23.20;;;;;;;-4.40;100.00;100991.59;5035289;28;20033;-70
2022/12/17 21:26:28;;;;;;;48.65;22.92;;;;;;;-4.41;100.00;100995.34;4990202;28;20040;-70
2022/12/17 21:28:57;;;;;;;49.20;22.52;;;;;;;-4.43;100.00;100992.84;4984609;28;20057;-70
2022/12/17 21:31:26;;;;;;;49.50;23.10;;;;;;;-4.45;100.00;100989.47;4992309;28;20062;-70
2022/12/17 21:33:53;;;;;;;47.20;22.27;;;;;;;-4.46;100.00;100989.63;5002937;28;20021;-70
2022/12/17 21:36:19;;;;;;;44.45;21.80;;;;;;;-4.50;100.00;101000.84;5017437;28;20561;-70
2022/12/17 21:38:45;;;;;;;46.75;22.33;;;;;;;-4.52;100.00;101007.47;5006177;28;20041;-70
2022/12/17 21:41:21;;;;;;;52.38;23.27;;;;;;;-4.56;100.00;101001.59;5030971;28;20091;-70
2022/12/17 21:43:50;;;;;;;50.83;23.02;;;;;;;-4.55;100.00;101002.44;5015026;28;20509;-70
2022/12/17 21:46:16;;;;;;;46.65;22.83;;;;;;;-4.56;100.00;100995.34;5019278;28;20059;-70
2022/12/17 21:48:41;;;;;;;47.65;22.45;;;;;;;-4.58;100.00;100991.97;4999749;28;20030;-69
2022/12/17 21:51:08;;;;;;;48.53;22.85;;;;;;;-4.61;100.00;100986.91;4989011;28;20490;-70
2022/12/17 21:53:34;;;;;;;48.97;22.40;;;;;;;-4.62;100.00;100985.22;4995317;28;20109;-69
2022/12/17 21:56:07;;;;;;;49.25;23.70;;;;;;;-4.64;100.00;100988.13;5019509;28;20057;-69
2022/12/17 21:58:33;;;;;;;53.10;23.23;;;;;;;-4.64;100.00;100981.84;4996992;28;20061;-69
2022/12/17 22:01:20;;;;;;;51.13;24.45;;;;;;;-4.64;100.00;100976.44;5014591;28;20030;-70
2022/12/17 22:03:47;;;;;;;54.08;24.05;;;;;;;-4.66;100.00;100973.88;5001575;28;20080;-69
2022/12/17 22:06:14;;;;;;;55.25;23.73;;;;;;;-4.65;100.00;100974.72;5027435;28;20556;-70
2022/12/17 22:08:39;;;;;;;52.47;23.88;;;;;;;-4.65;100.00;100985.56;5014611;28;20026;-69
2022/12/17 22:11:09;;;;;;;58.30;24.85;;;;;;;-4.64;100.00;100981.84;4998213;28;20029;-69
2022/12/17 22:16:23;;;;;;;62.03;26.23;;;;;;;-4.65;100.00;100991.00;5001058;28;20029;-69
2022/12/17 22:18:48;;;;;;;54.38;25.50;;;;;;;-4.63;100.00;100991.66;5019138;28;20037;-70
2022/12/17 22:21:14;;;;;;;51.90;25.52;;;;;;;-4.63;100.00;100994.38;5036102;28;20031;-70
2022/12/17 22:23:39;;;;;;;56.25;25.27;;;;;;;-4.66;100.00;100987.44;5031418;28;20081;-69
2022/12/17 22:26:11;;;;;;;53.17;24.77;;;;;;;-4.64;100.00;100988.13;5013999;28;20773;-70
2022/12/17 22:28:37;;;;;;;43.87;20.07;;;;;;;-4.64;100.00;100979.16;4998261;28;20053;-69
2022/12/17 22:33:49;;;;;;;57.33;25.70;;;;;;;-4.64;100.00;100976.44;5016473;28;20474;-69
2022/12/17 22:36:14;;;;;;;60.50;27.77;;;;;;;-4.64;100.00;100982.69;5037910;28;20072;-70
2022/12/17 22:38:40;;;;;;;57.42;26.92;;;;;;;-4.63;100.00;100983.53;5021804;28;20030;-69
2022/12/17 22:41:06;;;;;;;58.85;26.25;;;;;;;-4.64;100.00;100993.53;5032827;28;20473;-69
2022/12/17 22:43:33;;;;;;;62.88;27.38;;;;;;;-4.64;100.00;100998.13;5021527;28;20032;-69
2022/12/17 22:46:02;;;;;;;58.42;26.42;;;;;;;-4.65;100.00;100997.28;5004951;28;20116;-69
2022/12/17 22:48:29;;;;;;;63.97;28.30;;;;;;;-4.63;100.00;100986.25;5037457;28;20034;-70
2022/12/17 22:50:54;;;;;;;63.40;28.00;;;;;;;-4.64;100.00;100992.69;5017909;28;20363;-70
2022/12/17 22:53:20;;;;;;;59.30;27.75;;;;;;;-4.67;100.00;100991.19;5001284;28;20037;-69
2022/12/17 22:55:47;;;;;;;56.78;26.17;;;;;;;-4.68;100.00;100996.78;5004355;28;20115;-70
2022/12/17 22:58:12;;;;;;;57.67;28.10;;;;;;;-4.65;100.00;101001.84;5018892;28;20033;-70
2022/12/17 23:00:38;;;;;;;63.05;27.52;;;;;;;-4.64;100.00;101000.81;5021157;28;20034;-70
2022/12/17 23:03:04;;;;;;;67.35;29.80;;;;;;;-4.64;100.00;100998.94;5022670;28;20037;-70
2022/12/17 23:05:29;;;;;;;64.97;27.77;;;;;;;-4.66;100.00;100992.88;5001215;28;20422;-69
2022/12/17 23:07:55;;;;;;;60.65;27.60;;;;;;;-4.66;100.00;100998.28;4985083;28;20457;-70
2022/12/17 23:10:21;;;;;;;66.18;28.75;;;;;;;-4.65;100.00;101012.66;5000818;28;20029;-70
2022/12/17 23:12:49;;;;;;;65.22;27.20;;;;;;;-4.64;100.00;100998.94;5017657;28;20026;-70
2022/12/17 23:15:15;;;;;;;62.13;27.75;;;;;;;-4.64;100.00;100995.41;5001816;28;20493;-69
2022/12/17 23:17:40;;;;;;;67.60;28.88;;;;;;;-4.64;100.00;100984.56;5010678;28;20034;-70
2022/12/17 23:20:06;;;;;;;67.15;29.58;;;;;;;-4.67;100.00;100980.34;5000867;28;20724;-69
2022/12/17 23:22:31;;;;;;;64.80;28.05;;;;;;;-4.69;100.00;100978.84;5034050;28;20033;-69
2022/12/17 23:24:57;;;;;;;62.00;28.00;;;;;;;-4.68;100.00;100986.81;5017007;28;20086;-69
2022/12/17 23:27:22;;;;;;;66.00;28.45;;;;;;;-4.71;100.00;100976.31;5025415;28;20029;-69
2022/12/17 23:29:48;;;;;;;69.82;29.00;;;;;;;-4.67;100.00;100971.38;5001506;28;20022;-69
2022/12/17 23:32:13;;;;;;;64.30;28.90;;;;;;;-4.68;100.00;100970.53;4992116;28;20040;-70
2022/12/17 23:34:39;;;;;;;60.30;28.48;;;;;;;-4.69;100.00;100968.84;5004088;28;20469;-69
2022/12/17 23:37:04;;;;;;;63.35;28.73;;;;;;;-4.73;100.00;100973.78;5020271;28;20058;-69
2022/12/17 23:39:30;;;;;;;65.57;28.60;;;;;;;-4.69;100.00;100970.72;5017535;28;20037;-69
2022/12/17 23:41:55;;;;;;;68.03;29.70;;;;;;;-4.70;100.00;100969.03;5000693;28;20030;-69
2022/12/17 23:44:21;;;;;;;68.00;29.15;;;;;;;-4.71;100.00;100962.75;4984589;28;20123;-70
2022/12/17 23:46:46;;;;;;;63.97;29.67;;;;;;;-4.70;100.00;100960.91;5016693;28;20033;-70
2022/12/17 23:49:15;;;;;;;65.93;28.63;;;;;;;-4.70;100.00;100956.31;5015323;28;20041;-70
2022/12/17 23:51:40;;;;;;;66.07;29.90;;;;;;;-4.69;100.00;100962.59;5015745;28;20034;-70
2022/12/17 23:54:06;;;;;;;65.20;29.48;;;;;;;-4.68;100.00;100970.53;4983978;28;20033;-70
2022/12/17 23:56:31;;;;;;;65.43;27.75;;;;;;;-4.69;100.00;100963.41;4983957;28;20030;-69
2022/12/17 23:58:58;;;;;;;65.72;29.08;;;;;;;-4.73;100.00;100957.53;5000380;28;20026;-70
